Sitka, AK

11:50 PM AKDT on August 19, 2014 (GMT -0800)
Sitka Rocky Gutierrez | Change Station
CLOSE
Current Station
Airport
Location: Sitka,
Elevation: 20 ft
Nearby Weather Stations

Elev 20 ft 57.05 °N, 135.36 °W | Updated 57 minutes ago

Clear
Clear
54 °F
Feels Like 54 °F
N
4
Wind Variable Wind from East

Today
High -- | Low -- °F
--% Chance of Precip.
Yesterday
High -- | Low -- °F
Precip. -- in
5:37 AM 8:31 PM
Waning Crescent, 23% visible
Pressure 30.00 in
Visibility 10.0 miles
Clouds Clear
Dew Point 49 °F
Humidity 83%
Rainfall 0.09 in
Snow Depth Not available.
UV 0 out of 12
Pollen Not available.
Air Quality Not available.
Flu Activity Not available.
METAR PASI 200653Z 09003KT 10SM CLR 12/09 A3000 RMK AO2 SLP158 T01220094

More Conditions Fewer Conditions

Pressure 30.00 in
Visibility 10.0 miles
Clouds Clear
Dew Point 49 °F
Humidity 83%
Rainfall 0.09 in
Snow Depth Not available.
UV 0 out of 12
Pollen Not available.
Air Quality Not available.
Flu Activity Not available.
METAR PASI 200653Z 09003KT 10SM CLR 12/09 A3000 RMK AO2 SLP158 T01220094

More Conditions Fewer Conditions

10-Day Weather Forecast

Almanac

Astronomy

Aug. 19, 2014 Rise Set
Actual Time 5:37 AM AKDT 8:31 PM AKDT
Civil Twilight 4:53 AM AKDT 9:15 PM AKDT
Nautical Twilight 3:54 AM AKDT 10:13 PM AKDT
Astronomical Twilight 2:30 AM AKDT 11:33 PM AKDT
Moon 12:13 AM AKDT (8/19) 4:57 PM AKDT (8/19)
Length of Visible Light 16h 21m
Length of Day
14h 54m
Tomorrow will be 4m 36s shorter.
Waning Crescent, 23% of the Moon is Illuminated
Aug 20
Waning Crescent
Aug 25
New
Sep 2
First Quarter
Sep 8
Full
Sep 15
Last Quarter

Community

WunderPhotos

Upload Photos

1,745,592 photos uploaded!

Nearby

Snow Depth

Station Depth Elevation
Long Lake 0 in 820 ft
Upper Tsaina River 0 in 1750 ft
Moraine 0 in 2100 ft
Grandview 0 in 1100 ft
Grouse Creek Divide 0 in 700 ft

Earthquake Activity

City Distance Mag. Time & Date
No recent earthquake activity has been reported nearby.
Minimum magnitude displayed is 2.5.

Coastal Water Temperatures

Place Temperature
No Stations Reporting

Nearby Weather Stations